createdAt,value
2019-03-11T04:26:57.085Z,0.73
2019-03-11T04:29:39.191Z,0.70
2019-03-11T04:32:21.179Z,0.67
2019-03-11T04:35:02.872Z,0.70
2019-03-11T04:37:44.890Z,0.80
2019-03-11T04:40:26.778Z,0.53
2019-03-11T04:43:08.446Z,0.70
2019-03-11T04:45:50.557Z,0.77
2019-03-11T04:48:32.542Z,0.60
2019-03-11T04:51:14.526Z,0.50
2019-03-11T04:53:56.597Z,0.50
2019-03-11T04:56:38.557Z,0.70
2019-03-11T04:59:20.762Z,0.50
2019-03-11T05:02:02.607Z,0.50
2019-03-11T05:04:44.404Z,0.60
2019-03-11T05:07:26.459Z,0.33
2019-03-11T05:10:08.626Z,0.50
2019-03-11T05:12:50.122Z,0.43
2019-03-11T05:15:32.265Z,0.40
2019-03-11T05:18:14.394Z,0.40
2019-03-11T05:20:55.077Z,0.53
2019-03-11T05:23:37.140Z,0.57
2019-03-11T05:26:19.240Z,0.50
2019-03-11T05:29:01.314Z,0.60
2019-03-11T05:31:43.075Z,0.40
2019-03-11T05:34:25.047Z,0.60
2019-03-11T05:37:06.943Z,0.40
2019-03-11T05:39:48.884Z,0.67
2019-03-11T05:42:30.998Z,0.30
2019-03-11T05:45:14.202Z,0.60
2019-03-11T05:47:44.524Z,0.70
2019-03-11T05:50:33.854Z,0.43
2019-03-11T05:53:17.233Z,0.60
2019-03-11T05:55:59.496Z,0.60
2019-03-11T05:58:41.668Z,0.40
2019-03-11T06:01:23.925Z,0.50
2019-03-11T06:04:06.124Z,0.63
2019-03-11T06:06:48.699Z,0.53
2019-03-11T06:09:30.333Z,0.63
2019-03-11T06:12:12.388Z,0.60
2019-03-11T06:14:54.408Z,0.70
2019-03-11T06:17:36.578Z,0.57
2019-03-11T06:20:37.497Z,0.60
2019-03-11T06:23:19.488Z,0.50
2019-03-11T06:26:00.078Z,0.47
2019-03-11T06:28:42.222Z,0.60
2019-03-11T06:31:25.236Z,0.60
2019-03-11T06:33:55.510Z,0.40
2019-03-11T06:36:37.350Z,0.47
2019-03-11T06:39:20.392Z,0.60
2019-03-11T06:42:02.293Z,0.77
2019-03-11T06:44:44.461Z,0.80
2019-03-11T06:47:26.243Z,1.07
2019-03-11T06:50:09.199Z,0.70
2019-03-11T06:52:50.900Z,0.73
2019-03-11T06:55:32.841Z,0.60
2019-03-11T06:58:14.711Z,0.90
2019-03-11T07:00:56.885Z,0.90
2019-03-11T07:03:39.250Z,1.00
2019-03-11T07:06:21.176Z,0.80
2019-03-11T07:09:03.603Z,0.90
2019-03-11T07:11:46.762Z,0.63
2019-03-11T07:14:28.869Z,0.87
2019-03-11T07:16:59.165Z,1.07
2019-03-11T07:19:41.578Z,1.00
2019-03-11T07:22:24.033Z,1.13
2019-03-11T07:25:05.844Z,1.00
2019-03-11T07:27:47.566Z,1.30
2019-03-11T07:30:29.383Z,1.30
2019-03-11T07:33:11.209Z,1.00
2019-03-11T07:35:53.096Z,0.90
2019-03-11T07:38:35.017Z,1.00
2019-03-11T07:41:18.126Z,1.20
2019-03-11T07:44:00.326Z,1.10
2019-03-11T07:46:42.464Z,1.20
2019-03-11T07:49:24.548Z,1.10
2019-03-11T07:52:06.831Z,1.10
2019-03-11T07:54:48.721Z,1.07
2019-03-11T07:57:30.483Z,1.00
2019-03-11T08:00:12.467Z,1.03
2019-03-11T08:02:54.178Z,1.00
2019-03-11T08:05:36.394Z,1.07
2019-03-11T08:08:18.597Z,0.83
2019-03-11T08:11:00.768Z,1.10
2019-03-11T08:13:42.985Z,1.20
2019-03-11T08:16:25.009Z,1.03
2019-03-11T08:19:06.701Z,1.23
2019-03-11T08:21:48.801Z,1.10
2019-03-11T08:24:30.865Z,1.17
2019-03-11T08:27:13.138Z,1.40
2019-03-11T08:29:55.053Z,1.20
2019-03-11T08:32:36.916Z,1.20
2019-03-11T08:35:18.926Z,1.20
2019-03-11T08:38:05.055Z,0.97
2019-03-11T08:40:44.874Z,1.00
2019-03-11T08:43:27.106Z,1.30
2019-03-11T08:46:09.045Z,1.30
2019-03-11T08:48:51.336Z,1.70
2019-03-11T08:51:33.677Z,1.40
2019-03-11T08:54:16.010Z,1.40
2019-03-11T08:56:58.073Z,1.10
2019-03-11T08:59:40.456Z,1.13
2019-03-11T09:02:22.796Z,1.20
2019-03-11T09:05:05.194Z,1.00
2019-03-11T09:07:47.034Z,1.37
2019-03-11T09:10:30.845Z,1.10
2019-03-11T09:13:14.361Z,1.10
2019-03-11T09:15:56.959Z,1.42
2019-03-11T09:18:38.727Z,1.33
2019-03-11T09:21:21.225Z,1.70
2019-03-11T09:24:03.296Z,1.50
2019-03-11T09:26:45.510Z,1.10
2019-03-11T09:29:27.723Z,1.13
2019-03-11T09:32:10.267Z,1.40
2019-03-11T09:34:53.204Z,1.23
2019-03-11T09:37:35.687Z,1.47
2019-03-11T09:40:18.027Z,1.10
2019-03-11T09:43:00.121Z,1.20
2019-03-11T09:45:42.366Z,1.17
2019-03-11T09:48:24.156Z,1.13
2019-03-11T09:51:08.537Z,1.30
2019-03-11T09:53:51.299Z,1.40
2019-03-11T09:56:42.985Z,1.20
2019-03-11T09:59:16.933Z,1.23
2019-03-11T10:01:59.651Z,1.30
2019-03-11T10:04:41.560Z,1.20
2019-03-11T10:07:23.165Z,1.20
2019-03-11T10:09:55.433Z,1.27
2019-03-11T10:12:37.846Z,1.07
2019-03-11T10:15:20.234Z,1.20
2019-03-11T10:18:02.782Z,1.10
2019-03-11T10:20:45.968Z,1.30
2019-03-11T10:23:32.004Z,1.10
2019-03-11T10:26:11.809Z,1.10
2019-03-11T10:28:53.371Z,1.30
2019-03-11T10:31:37.099Z,1.10
2019-03-11T10:34:19.663Z,1.10
2019-03-11T10:36:50.308Z,1.17
2019-03-11T10:39:39.980Z,1.40
2019-03-11T10:42:23.016Z,1.43
2019-03-11T10:45:08.145Z,1.10
2019-03-11T10:47:51.336Z,1.20
2019-03-11T10:50:33.890Z,1.60
2019-03-11T10:53:17.757Z,1.20
2019-03-11T10:56:00.716Z,1.10
2019-03-11T10:58:46.074Z,1.13
2019-03-11T11:01:28.393Z,1.50
2019-03-11T11:04:09.001Z,1.40
2019-03-11T11:06:50.626Z,2.40
2019-03-11T11:09:32.771Z,1.60
2019-03-11T11:12:15.073Z,1.30
2019-03-11T11:14:56.950Z,1.20
2019-03-11T11:17:39.043Z,1.30
2019-03-11T11:20:21.089Z,1.20
2019-03-11T11:23:03.218Z,1.10
2019-03-11T11:25:45.543Z,1.10
2019-03-11T11:28:27.638Z,1.23
2019-03-11T11:31:09.926Z,1.10
2019-03-11T11:33:53.053Z,3.87
2019-03-11T11:36:33.490Z,1.80
2019-03-11T11:39:15.892Z,2.03
2019-03-11T11:41:57.956Z,1.50
2019-03-11T11:44:40.122Z,1.30
2019-03-11T11:47:22.186Z,1.40
2019-03-11T11:50:04.491Z,1.23
2019-03-11T11:52:46.676Z,0.90
2019-03-11T11:55:28.789Z,1.70
2019-03-11T11:58:11.118Z,1.83
2019-03-11T12:00:53.297Z,1.30
2019-03-11T12:03:35.438Z,1.43
2019-03-11T12:06:17.609Z,1.67
2019-03-11T12:08:59.583Z,1.27
2019-03-11T12:11:41.763Z,2.00
2019-03-11T12:14:23.629Z,1.50
2019-03-11T12:17:05.854Z,2.00
2019-03-11T12:19:47.758Z,1.37
2019-03-11T12:22:31.326Z,1.30
2019-03-11T12:25:13.987Z,1.33
2019-03-11T12:27:58.072Z,1.40
2019-03-11T12:30:39.556Z,0.93
2019-03-11T12:33:21.607Z,1.90
2019-03-11T12:36:03.934Z,1.40
2019-03-11T12:38:45.918Z,1.23
2019-03-11T12:41:28.403Z,1.20
2019-03-11T12:44:11.246Z,1.40
2019-03-11T12:46:53.111Z,1.30
2019-03-11T12:49:35.343Z,1.40
2019-03-11T12:52:17.538Z,1.30
2019-03-11T12:54:59.419Z,1.40
2019-03-11T12:57:42.671Z,1.33
2019-03-11T13:00:24.946Z,1.30
2019-03-11T13:03:08.206Z,1.03
2019-03-11T13:05:49.958Z,0.90
2019-03-11T13:08:32.153Z,1.27
2019-03-11T13:11:14.395Z,1.30
2019-03-11T13:13:56.399Z,1.50
2019-03-11T13:16:38.734Z,1.90
2019-03-11T13:19:20.934Z,3.70
2019-03-11T13:21:51.248Z,7.87
2019-03-11T13:24:40.655Z,4.70
2019-03-11T13:27:22.643Z,1.10
2019-03-11T13:30:04.741Z,1.40
2019-03-11T13:32:47.738Z,1.10
2019-03-11T13:35:29.676Z,0.97
2019-03-11T13:38:11.845Z,1.20
2019-03-11T13:40:53.706Z,1.20
2019-03-11T13:43:35.810Z,1.00
2019-03-11T13:46:17.855Z,1.10
2019-03-11T13:48:48.282Z,0.90
2019-03-11T13:51:37.592Z,1.00
2019-03-11T13:54:19.952Z,1.23
2019-03-11T13:57:02.447Z,1.10
2019-03-11T13:59:44.829Z,0.87
2019-03-11T14:02:26.571Z,1.00
2019-03-11T14:05:09.477Z,1.10
2019-03-11T14:07:51.703Z,1.43
2019-03-11T14:10:34.242Z,1.30
2019-03-11T14:13:16.346Z,1.10
2019-03-11T14:15:58.725Z,1.10
2019-03-11T14:18:40.827Z,1.20
2019-03-11T14:21:26.024Z,0.83
2019-03-11T14:24:06.639Z,1.00
2019-03-11T14:26:48.501Z,1.10
2019-03-11T14:29:31.242Z,1.00
2019-03-11T14:32:14.513Z,1.00
2019-03-11T14:34:56.966Z,0.90
2019-03-11T14:37:27.539Z,1.10
2019-03-11T14:40:09.964Z,1.22
2019-03-11T14:42:52.037Z,1.70
2019-03-11T14:45:34.110Z,1.32
2019-03-11T14:48:16.137Z,1.63
2019-03-11T14:50:58.061Z,1.50
2019-03-11T14:53:40.407Z,1.20
2019-03-11T14:56:23.070Z,1.10
2019-03-11T14:59:04.981Z,1.20
2019-03-11T15:01:48.322Z,1.20
2019-03-11T15:04:30.333Z,0.90
2019-03-11T15:07:12.839Z,1.30
2019-03-11T15:13:04.899Z,1.40
2019-03-11T15:15:46.936Z,1.27
2019-03-11T15:18:28.891Z,1.30
2019-03-11T15:21:09.606Z,1.40
2019-03-11T15:23:51.809Z,1.20
2019-03-11T15:26:34.179Z,1.33
2019-03-11T15:29:15.853Z,1.53
2019-03-11T15:31:59.317Z,1.60
2019-03-11T15:34:41.990Z,1.40
2019-03-11T15:37:26.755Z,1.60
2019-03-11T15:40:14.638Z,1.07
2019-03-11T15:42:58.478Z,1.30
2019-03-11T15:45:41.119Z,1.10
2019-03-11T15:48:24.031Z,1.00
2019-03-11T15:51:07.039Z,1.40
2019-03-11T15:53:49.647Z,1.20
2019-03-11T15:56:32.334Z,1.40
2019-03-11T15:59:18.429Z,1.30
2019-03-11T16:02:00.601Z,1.33
2019-03-11T16:04:48.592Z,1.20
2019-03-11T16:07:31.175Z,1.30
2019-03-11T16:10:17.028Z,1.57
2019-03-11T16:12:59.371Z,1.50
2019-03-11T16:15:44.314Z,2.93
2019-03-11T16:18:17.191Z,2.37
2019-03-11T16:21:06.580Z,2.57
2019-03-11T16:23:49.607Z,2.30
2019-03-11T16:26:31.565Z,1.70
2019-03-11T16:29:13.839Z,1.87
2019-03-11T16:31:56.448Z,2.20
2019-03-11T16:34:38.580Z,1.27
2019-03-11T16:37:20.928Z,1.80
2019-03-11T16:40:03.061Z,2.00
2019-03-11T16:42:45.657Z,1.83
2019-03-11T16:45:27.834Z,1.50
2019-03-11T16:47:58.981Z,1.30
2019-03-11T16:50:41.687Z,1.73
2019-03-11T16:53:23.945Z,1.43
2019-03-11T16:56:08.425Z,1.23
2019-03-11T16:58:51.601Z,1.30
2019-03-11T17:01:34.184Z,1.60
2019-03-11T17:04:16.547Z,1.57
2019-03-11T17:06:58.951Z,1.30
2019-03-11T17:09:42.550Z,1.40
2019-03-11T17:12:25.535Z,1.47
2019-03-11T17:15:07.920Z,1.70
2019-03-11T17:17:50.014Z,1.20
2019-03-11T17:20:34.835Z,1.30
2019-03-11T17:23:19.865Z,2.47
2019-03-11T17:26:02.225Z,1.60
2019-03-11T17:28:45.282Z,1.60
2019-03-11T17:31:27.385Z,1.70
2019-03-11T17:34:09.789Z,1.67
2019-03-11T17:36:53.889Z,1.23
2019-03-11T17:39:36.126Z,1.10
2019-03-11T17:42:18.222Z,3.07
2019-03-11T17:44:59.896Z,1.30
2019-03-11T17:47:44.463Z,1.60
2019-03-11T17:50:29.370Z,1.52
2019-03-11T17:53:19.601Z,1.50
2019-03-11T17:55:56.252Z,1.33
2019-03-11T17:58:38.827Z,1.20
2019-03-11T18:04:21.141Z,1.67
2019-03-11T18:07:03.556Z,1.30
2019-03-11T18:09:45.558Z,1.33
2019-03-11T18:15:26.455Z,1.33
2019-03-11T18:17:56.732Z,1.30
2019-03-11T18:20:46.078Z,1.50
2019-03-11T18:23:27.744Z,1.98
2019-03-11T18:26:11.994Z,1.30
2019-03-11T18:28:53.621Z,1.60
2019-03-11T18:31:35.646Z,1.57
2019-03-11T18:34:17.601Z,1.80
2019-03-11T18:36:51.420Z,1.30
2019-03-11T18:39:33.443Z,1.43
2019-03-11T18:42:24.838Z,1.53
2019-03-11T18:44:59.006Z,1.47
2019-03-11T18:47:41.412Z,1.50
2019-03-11T18:50:23.406Z,1.40
2019-03-11T18:53:06.561Z,1.20
2019-03-11T18:55:49.633Z,1.50
2019-03-11T18:58:32.216Z,1.47
2019-03-11T19:03:51.366Z,1.50
2019-03-11T19:06:33.770Z,1.50
2019-03-11T19:09:16.019Z,1.57
2019-03-11T19:11:58.471Z,1.60
2019-03-11T19:14:42.069Z,1.40
2019-03-11T19:17:24.431Z,1.83
2019-03-11T19:20:06.718Z,1.70
2019-03-11T19:22:48.853Z,1.77
2019-03-11T19:25:19.143Z,1.43
2019-03-11T19:28:09.193Z,1.70
2019-03-11T19:30:52.994Z,2.10
2019-03-11T19:33:34.866Z,2.37
2019-03-11T19:36:17.153Z,2.72
2019-03-11T19:38:48.775Z,2.67
2019-03-11T19:41:31.072Z,3.23
2019-03-11T19:44:15.942Z,2.73
2019-03-11T19:46:58.429Z,3.00
2019-03-11T19:49:40.009Z,2.97
2019-03-11T19:52:21.870Z,3.13
2019-03-11T19:55:03.454Z,4.30
2019-03-11T19:57:46.456Z,2.97
2019-03-11T20:00:18.137Z,2.50
2019-03-11T20:03:07.815Z,2.20
2019-03-11T20:05:49.542Z,2.67
2019-03-11T20:08:31.944Z,3.00
2019-03-11T20:11:14.597Z,3.20
2019-03-11T20:13:58.890Z,2.83
2019-03-11T20:16:43.322Z,2.50
2019-03-11T20:19:28.168Z,2.53
2019-03-11T20:22:11.007Z,2.73
2019-03-11T20:24:54.881Z,2.50
2019-03-11T20:27:37.480Z,1.93
2019-03-11T20:30:20.488Z,2.00
2019-03-11T20:33:05.285Z,2.20
2019-03-11T20:35:50.255Z,2.40
2019-03-11T20:38:37.668Z,2.17
2019-03-11T20:41:20.907Z,2.57
2019-03-11T20:44:04.936Z,2.37
2019-03-11T20:46:48.486Z,2.60
2019-03-11T20:49:32.029Z,2.50
2019-03-11T20:52:16.806Z,2.57
2019-03-11T20:55:00.721Z,2.47
2019-03-11T20:57:43.204Z,2.20
2019-03-11T21:00:25.786Z,2.40
2019-03-11T21:03:08.845Z,2.27
2019-03-11T21:05:51.715Z,2.40
2019-03-11T21:08:34.121Z,2.37
2019-03-11T21:11:16.472Z,2.20
2019-03-11T21:13:59.629Z,2.13
2019-03-11T21:16:42.393Z,2.03
2019-03-11T21:19:24.865Z,2.30
2019-03-11T21:22:09.336Z,1.70
2019-03-11T21:24:59.576Z,2.50
2019-03-11T21:27:35.995Z,1.93
2019-03-11T21:30:06.662Z,1.93
2019-03-11T21:32:48.741Z,1.97
2019-03-11T21:35:30.498Z,2.20
2019-03-11T21:38:12.531Z,1.73
2019-03-11T21:40:54.641Z,2.10
2019-03-11T21:43:36.559Z,2.00
2019-03-11T21:46:18.442Z,2.20
2019-03-11T21:49:00.410Z,1.87
2019-03-11T21:51:42.377Z,1.87
2019-03-11T21:54:24.647Z,1.70
